sensor_id;sensor_type;location;lat;lon;timestamp;pressure;altitude;pressure_sealevel;temperature;humidity
26823;BME280;14852;51.910;8.878;2023-11-21T00:01:41;99180.38;;;10.95;66.83
26823;BME280;14852;51.910;8.878;2023-11-21T00:04:07;99179.31;;;10.98;67.01
26823;BME280;14852;51.910;8.878;2023-11-21T00:06:33;99189.63;;;10.99;66.41
26823;BME280;14852;51.910;8.878;2023-11-21T00:08:59;99186.00;;;11.02;66.72
26823;BME280;14852;51.910;8.878;2023-11-21T00:11:25;99190.19;;;11.04;66.65
26823;BME280;14852;51.910;8.878;2023-11-21T00:13:51;99183.13;;;11.06;66.68
26823;BME280;14852;51.910;8.878;2023-11-21T00:16:17;99181.16;;;11.10;66.64
26823;BME280;14852;51.910;8.878;2023-11-21T00:18:43;99184.50;;;11.12;66.85
26823;BME280;14852;51.910;8.878;2023-11-21T00:21:09;99185.22;;;11.14;66.74
26823;BME280;14852;51.910;8.878;2023-11-21T00:23:38;99181.50;;;11.18;66.84
26823;BME280;14852;51.910;8.878;2023-11-21T00:26:04;99177.88;;;11.20;66.79
26823;BME280;14852;51.910;8.878;2023-11-21T00:28:30;99180.38;;;11.22;66.72
26823;BME280;14852;51.910;8.878;2023-11-21T00:30:56;99182.88;;;11.23;66.71
26823;BME280;14852;51.910;8.878;2023-11-21T00:33:21;99182.78;;;11.25;66.59
26823;BME280;14852;51.910;8.878;2023-11-21T00:35:47;99187.88;;;11.27;66.61
26823;BME280;14852;51.910;8.878;2023-11-21T00:38:13;99187.78;;;11.28;66.38
26823;BME280;14852;51.910;8.878;2023-11-21T00:40:39;99192.91;;;11.30;66.77
26823;BME280;14852;51.910;8.878;2023-11-21T00:43:04;99200.56;;;11.31;66.62
26823;BME280;14852;51.910;8.878;2023-11-21T00:45:31;99198.81;;;11.32;66.81
26823;BME280;14852;51.910;8.878;2023-11-21T00:47:56;99201.31;;;11.33;66.62
26823;BME280;14852;51.910;8.878;2023-11-21T00:50:23;99203.00;;;11.34;66.61
26823;BME280;14852;51.910;8.878;2023-11-21T00:52:49;99206.34;;;11.36;66.70
26823;BME280;14852;51.910;8.878;2023-11-21T00:55:17;99207.16;;;11.37;66.51
26823;BME280;14852;51.910;8.878;2023-11-21T00:57:43;99207.06;;;11.38;66.74
26823;BME280;14852;51.910;8.878;2023-11-21T01:00:09;99216.53;;;11.39;66.63
26823;BME280;14852;51.910;8.878;2023-11-21T01:02:46;99216.31;;;11.42;66.63
26823;BME280;14852;51.910;8.878;2023-11-21T01:05:13;99207.72;;;11.42;66.78
26823;BME280;14852;51.910;8.878;2023-11-21T01:07:39;99213.72;;;11.42;66.86
26823;BME280;14852;51.910;8.878;2023-11-21T01:10:06;99213.63;;;11.44;66.68
26823;BME280;14852;51.910;8.878;2023-11-21T01:12:36;99217.06;;;11.44;66.56
26823;BME280;14852;51.910;8.878;2023-11-21T01:15:04;99215.31;;;11.45;66.37
26823;BME280;14852;51.910;8.878;2023-11-21T01:17:33;99216.97;;;11.46;66.88
26823;BME280;14852;51.910;8.878;2023-11-21T01:20:01;99214.47;;;11.44;66.48
26823;BME280;14852;51.910;8.878;2023-11-21T01:22:26;99219.97;;;11.40;66.87
26823;BME280;14852;51.910;8.878;2023-11-21T01:24:53;99227.88;;;11.38;67.14
26823;BME280;14852;51.910;8.878;2023-11-21T01:27:20;99223.06;;;11.32;66.91
26823;BME280;14852;51.910;8.878;2023-11-21T01:29:46;99225.66;;;11.32;67.05
26823;BME280;14852;51.910;8.878;2023-11-21T01:32:12;99227.41;;;11.32;66.99
26823;BME280;14852;51.910;8.878;2023-11-21T01:34:38;99223.06;;;11.32;66.82
26823;BME280;14852;51.910;8.878;2023-11-21T01:37:04;99227.41;;;11.32;67.22
26823;BME280;14852;51.910;8.878;2023-11-21T01:39:31;99220.66;;;11.29;66.88
26823;BME280;14852;51.910;8.878;2023-11-21T01:41:57;99217.69;;;11.21;67.11
26823;BME280;14852;51.910;8.878;2023-11-21T01:44:26;99223.41;;;11.13;67.52
26823;BME280;14852;51.910;8.878;2023-11-21T01:46:52;99224.81;;;11.05;67.53
26823;BME280;14852;51.910;8.878;2023-11-21T01:49:19;99222.88;;;10.94;67.34
26823;BME280;14852;51.910;8.878;2023-11-21T01:51:48;99228.84;;;10.82;67.87
26823;BME280;14852;51.910;8.878;2023-11-21T01:54:16;99223.38;;;10.72;67.86
26823;BME280;14852;51.910;8.878;2023-11-21T01:56:47;99214.38;;;10.64;67.78
26823;BME280;14852;51.910;8.878;2023-11-21T01:59:18;99226.91;;;10.57;68.03
26823;BME280;14852;51.910;8.878;2023-11-21T02:01:45;99227.47;;;10.48;67.81
26823;BME280;14852;51.910;8.878;2023-11-21T02:04:13;99225.13;;;10.43;67.91
26823;BME280;14852;51.910;8.878;2023-11-21T02:06:39;99236.53;;;10.41;68.08
26823;BME280;14852;51.910;8.878;2023-11-21T02:09:05;99230.72;;;10.37;68.22
26823;BME280;14852;51.910;8.878;2023-11-21T02:11:31;99236.16;;;10.33;67.90
26823;BME280;14852;51.910;8.878;2023-11-21T02:13:59;99239.88;;;10.29;67.74
26823;BME280;14852;51.910;8.878;2023-11-21T02:16:26;99240.78;;;10.28;67.82
26823;BME280;14852;51.910;8.878;2023-11-21T02:18:53;99245.53;;;10.21;67.77
26823;BME280;14852;51.910;8.878;2023-11-21T02:21:19;99251.06;;;10.15;67.59
26823;BME280;14852;51.910;8.878;2023-11-21T02:23:45;99245.38;;;10.08;67.52
26823;BME280;14852;51.910;8.878;2023-11-21T02:26:13;99248.34;;;10.02;67.63
26823;BME280;14852;51.910;8.878;2023-11-21T02:28:40;99246.91;;;9.97;67.71
26823;BME280;14852;51.910;8.878;2023-11-21T02:31:05;99248.00;;;9.93;67.68
26823;BME280;14852;51.910;8.878;2023-11-21T02:33:33;99251.72;;;9.89;67.64
26823;BME280;14852;51.910;8.878;2023-11-21T02:36:00;99247.78;;;9.81;67.84
26823;BME280;14852;51.910;8.878;2023-11-21T02:38:26;99259.38;;;9.76;67.60
26823;BME280;14852;51.910;8.878;2023-11-21T02:40:52;99253.59;;;9.71;67.37
26823;BME280;14852;51.910;8.878;2023-11-21T02:43:19;99260.81;;;9.66;67.90
26823;BME280;14852;51.910;8.878;2023-11-21T02:45:44;99263.66;;;9.61;67.83
26823;BME280;14852;51.910;8.878;2023-11-21T02:48:11;99262.97;;;9.58;67.67
26823;BME280;14852;51.910;8.878;2023-11-21T02:50:37;99258.16;;;9.52;67.38
26823;BME280;14852;51.910;8.878;2023-11-21T02:53:03;99263.44;;;9.50;67.73
26823;BME280;14852;51.910;8.878;2023-11-21T02:55:31;99263.78;;;9.44;67.49
26823;BME280;14852;51.910;8.878;2023-11-21T02:58:01;99270.97;;;9.39;67.47
26823;BME280;14852;51.910;8.878;2023-11-21T03:00:27;99270.03;;;9.40;67.43
26823;BME280;14852;51.910;8.878;2023-11-21T03:02:54;99281.00;;;9.45;67.16
26823;BME280;14852;51.910;8.878;2023-11-21T03:05:21;99280.75;;;9.50;67.38
26823;BME280;14852;51.910;8.878;2023-11-21T03:07:47;99286.44;;;9.56;67.09
26823;BME280;14852;51.910;8.878;2023-11-21T03:10:13;99280.97;;;9.61;66.97
26823;BME280;14852;51.910;8.878;2023-11-21T03:12:41;99285.16;;;9.63;66.93
26823;BME280;14852;51.910;8.878;2023-11-21T03:15:08;99281.66;;;9.64;66.60
26823;BME280;14852;51.910;8.878;2023-11-21T03:17:36;99292.19;;;9.61;66.39
26823;BME280;14852;51.910;8.878;2023-11-21T03:20:03;99287.09;;;9.60;66.71
26823;BME280;14852;51.910;8.878;2023-11-21T03:22:29;99296.63;;;9.59;66.68
26823;BME280;14852;51.910;8.878;2023-11-21T03:24:55;99304.41;;;9.59;66.76
26823;BME280;14852;51.910;8.878;2023-11-21T03:27:21;99293.31;;;9.57;66.62
26823;BME280;14852;51.910;8.878;2023-11-21T03:29:48;99300.41;;;9.54;66.57
26823;BME280;14852;51.910;8.878;2023-11-21T03:32:15;99304.00;;;9.51;66.58
26823;BME280;14852;51.910;8.878;2023-11-21T03:34:58;99308.94;;;9.56;66.79
26823;BME280;14852;51.910;8.878;2023-11-21T03:37:24;99310.63;;;9.57;66.94
26823;BME280;14852;51.910;8.878;2023-11-21T03:39:50;99312.38;;;9.56;66.69
26823;BME280;14852;51.910;8.878;2023-11-21T03:42:17;99310.78;;;9.54;66.55
26823;BME280;14852;51.910;8.878;2023-11-21T03:44:42;99315.06;;;9.55;67.14
26823;BME280;14852;51.910;8.878;2023-11-21T03:47:08;99317.72;;;9.53;66.82
26823;BME280;14852;51.910;8.878;2023-11-21T03:49:34;99321.06;;;9.55;66.76
26823;BME280;14852;51.910;8.878;2023-11-21T03:52:00;99322.75;;;9.56;67.14
26823;BME280;14852;51.910;8.878;2023-11-21T03:54:25;99325.81;;;9.63;66.62
26823;BME280;14852;51.910;8.878;2023-11-21T03:56:51;99328.81;;;9.71;66.85
26823;BME280;14852;51.910;8.878;2023-11-21T03:59:17;99321.63;;;9.76;66.75
26823;BME280;14852;51.910;8.878;2023-11-21T04:01:43;99326.47;;;9.82;66.48
26823;BME280;14852;51.910;8.878;2023-11-21T04:04:09;99326.22;;;9.87;66.44
26823;BME280;14852;51.910;8.878;2023-11-21T04:06:35;99325.31;;;9.88;66.70
26823;BME280;14852;51.910;8.878;2023-11-21T04:09:01;99327.91;;;9.88;66.66
26823;BME280;14852;51.910;8.878;2023-11-21T04:11:30;99324.38;;;9.89;66.51
26823;BME280;14852;51.910;8.878;2023-11-21T04:13:55;99332.81;;;9.92;66.86
26823;BME280;14852;51.910;8.878;2023-11-21T04:16:21;99327.53;;;9.94;66.66
26823;BME280;14852;51.910;8.878;2023-11-21T04:18:47;99331.72;;;9.96;66.63
26823;BME280;14852;51.910;8.878;2023-11-21T04:21:13;99329.88;;;9.98;66.59
26823;BME280;14852;51.910;8.878;2023-11-21T04:23:39;99342.78;;;10.00;66.79
26823;BME280;14852;51.910;8.878;2023-11-21T04:26:05;99344.47;;;10.01;66.98
26823;BME280;14852;51.910;8.878;2023-11-21T04:28:32;99340.09;;;10.01;66.84
26823;BME280;14852;51.910;8.878;2023-11-21T04:30:58;99348.44;;;10.06;67.21
26823;BME280;14852;51.910;8.878;2023-11-21T04:33:23;99345.69;;;10.09;66.99
26823;BME280;14852;51.910;8.878;2023-11-21T04:35:51;99349.72;;;10.15;66.80
26823;BME280;14852;51.910;8.878;2023-11-21T04:38:17;99345.94;;;10.21;66.99
26823;BME280;14852;51.910;8.878;2023-11-21T04:40:43;99349.13;;;10.26;66.80
26823;BME280;14852;51.910;8.878;2023-11-21T04:43:08;99348.75;;;10.32;66.86
26823;BME280;14852;51.910;8.878;2023-11-21T04:45:34;99352.94;;;10.34;66.54
26823;BME280;14852;51.910;8.878;2023-11-21T04:48:00;99358.81;;;10.38;66.70
26823;BME280;14852;51.910;8.878;2023-11-21T04:50:26;99351.72;;;10.40;66.77
26823;BME280;14852;51.910;8.878;2023-11-21T04:52:55;99359.34;;;10.43;66.71
26823;BME280;14852;51.910;8.878;2023-11-21T04:55:30;99358.34;;;10.45;66.66
26823;BME280;14852;51.910;8.878;2023-11-21T04:57:56;99362.78;;;10.43;66.77
26823;BME280;14852;51.910;8.878;2023-11-21T05:00:22;99362.88;;;10.42;66.97
26823;BME280;14852;51.910;8.878;2023-11-21T05:02:48;99362.03;;;10.41;67.33
26823;BME280;14852;51.910;8.878;2023-11-21T05:05:13;99362.03;;;10.41;66.80
26823;BME280;14852;51.910;8.878;2023-11-21T05:07:40;99360.38;;;10.40;66.93
26823;BME280;14852;51.910;8.878;2023-11-21T05:10:08;99357.84;;;10.39;67.03
26823;BME280;14852;51.910;8.878;2023-11-21T05:12:37;99359.63;;;10.38;67.20
26823;BME280;14852;51.910;8.878;2023-11-21T05:15:07;99363.78;;;10.41;67.09
26823;BME280;14852;51.910;8.878;2023-11-21T05:17:39;99361.19;;;10.41;67.25
26823;BME280;14852;51.910;8.878;2023-11-21T05:20:09;99360.56;;;10.37;67.46
26823;BME280;14852;51.910;8.878;2023-11-21T05:22:36;99362.31;;;10.37;67.29
26823;BME280;14852;51.910;8.878;2023-11-21T05:25:03;99359.81;;;10.35;67.25
26823;BME280;14852;51.910;8.878;2023-11-21T05:27:32;99365.66;;;10.39;67.41
26823;BME280;14852;51.910;8.878;2023-11-21T05:30:05;99367.44;;;10.38;67.23
26823;BME280;14852;51.910;8.878;2023-11-21T05:32:32;99370.75;;;10.40;67.57
26823;BME280;14852;51.910;8.878;2023-11-21T05:34:59;99374.09;;;10.42;67.19
26823;BME280;14852;51.910;8.878;2023-11-21T05:37:25;99377.53;;;10.43;67.42
26823;BME280;14852;51.910;8.878;2023-11-21T05:39:53;99373.75;;;10.48;67.37
26823;BME280;14852;51.910;8.878;2023-11-21T05:42:22;99380.34;;;10.54;67.32
26823;BME280;14852;51.910;8.878;2023-11-21T05:44:49;99376.06;;;10.53;67.20
26823;BME280;14852;51.910;8.878;2023-11-21T05:47:15;99379.44;;;10.55;67.47
26823;BME280;14852;51.910;8.878;2023-11-21T05:49:40;99389.66;;;10.58;67.31
26823;BME280;14852;51.910;8.878;2023-11-21T05:52:06;99391.13;;;10.62;67.40
26823;BME280;14852;51.910;8.878;2023-11-21T05:54:32;99385.84;;;10.64;67.26
26823;BME280;14852;51.910;8.878;2023-11-21T05:56:59;99386.69;;;10.64;67.36
26823;BME280;14852;51.910;8.878;2023-11-21T05:59:25;99388.28;;;10.67;67.36
26823;BME280;14852;51.910;8.878;2023-11-21T06:01:51;99390.78;;;10.68;67.67
26823;BME280;14852;51.910;8.878;2023-11-21T06:04:17;99395.91;;;10.70;67.56
26823;BME280;14852;51.910;8.878;2023-11-21T06:06:44;99397.47;;;10.72;67.61
26823;BME280;14852;51.910;8.878;2023-11-21T06:09:09;99400.81;;;10.74;67.31
26823;BME280;14852;51.910;8.878;2023-11-21T06:11:35;99397.19;;;10.77;67.18
26823;BME280;14852;51.910;8.878;2023-11-21T06:14:01;99403.97;;;10.79;67.20
26823;BME280;14852;51.910;8.878;2023-11-21T06:16:38;99403.91;;;10.81;67.32
26823;BME280;14852;51.910;8.878;2023-11-21T06:19:06;99406.56;;;10.79;67.72
26823;BME280;14852;51.910;8.878;2023-11-21T06:21:31;99416.81;;;10.82;67.60
26823;BME280;14852;51.910;8.878;2023-11-21T06:24:00;99411.41;;;10.85;67.77
26823;BME280;14852;51.910;8.878;2023-11-21T06:26:27;99420.69;;;10.89;67.22
26823;BME280;14852;51.910;8.878;2023-11-21T06:28:53;99424.88;;;10.92;67.20
26823;BME280;14852;51.910;8.878;2023-11-21T06:31:19;99428.25;;;10.94;67.52
26823;BME280;14852;51.910;8.878;2023-11-21T06:33:47;99428.88;;;10.98;67.18
26823;BME280;14852;51.910;8.878;2023-11-21T06:36:13;99431.47;;;10.98;67.27
26823;BME280;14852;51.910;8.878;2023-11-21T06:38:39;99434.81;;;11.00;67.17
26823;BME280;14852;51.910;8.878;2023-11-21T06:41:05;99438.09;;;11.03;67.25
26823;BME280;14852;51.910;8.878;2023-11-21T06:43:31;99449.25;;;11.05;67.47
26823;BME280;14852;51.910;8.878;2023-11-21T06:45:57;99445.50;;;11.09;67.44
26823;BME280;14852;51.910;8.878;2023-11-21T06:48:23;99457.59;;;11.10;67.56
26823;BME280;14852;51.910;8.878;2023-11-21T06:50:49;99458.34;;;11.12;67.47
26823;BME280;14852;51.910;8.878;2023-11-21T06:53:15;99461.78;;;11.13;67.52
26823;BME280;14852;51.910;8.878;2023-11-21T06:55:40;99473.84;;;11.14;67.10
26823;BME280;14852;51.910;8.878;2023-11-21T06:58:06;99472.94;;;11.15;67.36
26823;BME280;14852;51.910;8.878;2023-11-21T07:00:32;99481.56;;;11.15;67.31
26823;BME280;14852;51.910;8.878;2023-11-21T07:02:58;99478.03;;;11.16;67.35
26823;BME280;14852;51.910;8.878;2023-11-21T07:05:24;99483.16;;;11.18;67.69
26823;BME280;14852;51.910;8.878;2023-11-21T07:07:50;99484.00;;;11.18;67.31
26823;BME280;14852;51.910;8.878;2023-11-21T07:10:16;99488.25;;;11.19;67.53
26823;BME280;14852;51.910;8.878;2023-11-21T07:12:42;99493.28;;;11.22;67.50
26823;BME280;14852;51.910;8.878;2023-11-21T07:15:08;99481.09;;;11.23;67.43
26823;BME280;14852;51.910;8.878;2023-11-21T07:17:37;99488.72;;;11.26;67.30
26823;BME280;14852;51.910;8.878;2023-11-21T07:20:04;99499.81;;;11.30;67.51
26823;BME280;14852;51.910;8.878;2023-11-21T07:22:30;99503.97;;;11.32;67.08
26823;BME280;14852;51.910;8.878;2023-11-21T07:24:56;99506.47;;;11.34;67.72
26823;BME280;14852;51.910;8.878;2023-11-21T07:27:24;99507.31;;;11.34;67.75
26823;BME280;14852;51.910;8.878;2023-11-21T07:29:50;99510.66;;;11.36;67.26
26823;BME280;14852;51.910;8.878;2023-11-21T07:32:16;99516.69;;;11.37;67.41
26823;BME280;14852;51.910;8.878;2023-11-21T07:34:41;99513.19;;;11.38;67.45
26823;BME280;14852;51.910;8.878;2023-11-21T07:37:08;99524.34;;;11.40;67.37
26823;BME280;14852;51.910;8.878;2023-11-21T07:39:35;99521.72;;;11.40;67.64
26823;BME280;14852;51.910;8.878;2023-11-21T07:42:07;99524.13;;;11.43;67.45
26823;BME280;14852;51.910;8.878;2023-11-21T07:44:33;99525.81;;;11.44;67.59
26823;BME280;14852;51.910;8.878;2023-11-21T07:46:58;99526.47;;;11.47;67.67
26823;BME280;14852;51.910;8.878;2023-11-21T07:49:25;99522.94;;;11.48;67.80
26823;BME280;14852;51.910;8.878;2023-11-21T07:51:52;99528.81;;;11.52;67.72
26823;BME280;14852;51.910;8.878;2023-11-21T07:54:18;99533.09;;;11.53;67.77
26823;BME280;14852;51.910;8.878;2023-11-21T07:56:44;99538.09;;;11.56;67.93
26823;BME280;14852;51.910;8.878;2023-11-21T07:59:10;99543.94;;;11.59;67.61
26823;BME280;14852;51.910;8.878;2023-11-21T08:01:38;99543.03;;;11.60;67.46
26823;BME280;14852;51.910;8.878;2023-11-21T08:04:05;99544.53;;;11.65;67.28
26823;BME280;14852;51.910;8.878;2023-11-21T08:06:32;99550.44;;;11.67;67.52
26823;BME280;14852;51.910;8.878;2023-11-21T08:08:58;99558.16;;;11.68;67.47
26823;BME280;14852;51.910;8.878;2023-11-21T08:11:24;99556.41;;;11.69;67.23
26823;BME280;14852;51.910;8.878;2023-11-21T08:13:51;99559.84;;;11.69;67.57
26823;BME280;14852;51.910;8.878;2023-11-21T08:16:17;99564.97;;;11.71;67.68
26823;BME280;14852;51.910;8.878;2023-11-21T08:18:43;99566.63;;;11.72;67.57
26823;BME280;14852;51.910;8.878;2023-11-21T08:21:09;99573.38;;;11.76;67.49
26823;BME280;14852;51.910;8.878;2023-11-21T08:23:34;99575.69;;;11.80;67.61
26823;BME280;14852;51.910;8.878;2023-11-21T08:26:00;99572.06;;;11.83;67.37
26823;BME280;14852;51.910;8.878;2023-11-21T08:28:28;99577.94;;;11.86;67.27
26823;BME280;14852;51.910;8.878;2023-11-21T08:30:54;99565.75;;;11.87;67.35
26823;BME280;14852;51.910;8.878;2023-11-21T08:33:20;99569.91;;;11.89;67.50
26823;BME280;14852;51.910;8.878;2023-11-21T08:35:46;99578.38;;;11.93;67.62
26823;BME280;14852;51.910;8.878;2023-11-21T08:38:12;99575.69;;;11.94;67.63
26823;BME280;14852;51.910;8.878;2023-11-21T08:40:38;99580.16;;;11.92;67.28
26823;BME280;14852;51.910;8.878;2023-11-21T08:43:04;99576.72;;;11.92;67.43
26823;BME280;14852;51.910;8.878;2023-11-21T08:45:31;99578.47;;;11.91;67.38
26823;BME280;14852;51.910;8.878;2023-11-21T08:47:57;99580.06;;;11.94;67.54
26823;BME280;14852;51.910;8.878;2023-11-21T08:50:23;99588.72;;;11.94;67.47
26823;BME280;14852;51.910;8.878;2023-11-21T08:52:49;99595.59;;;11.95;67.49
26823;BME280;14852;51.910;8.878;2023-11-21T08:55:15;99599.88;;;11.96;67.10
26823;BME280;14852;51.910;8.878;2023-11-21T08:57:44;99598.19;;;11.95;67.58
26823;BME280;14852;51.910;8.878;2023-11-21T09:00:11;99608.78;;;11.92;67.62
26823;BME280;14852;51.910;8.878;2023-11-21T09:02:38;99615.84;;;11.90;67.50
26823;BME280;14852;51.910;8.878;2023-11-21T09:05:06;99616.06;;;11.87;67.71
26823;BME280;14852;51.910;8.878;2023-11-21T09:07:32;99620.44;;;11.87;67.52
26823;BME280;14852;51.910;8.878;2023-11-21T09:09:58;99620.31;;;11.88;67.42
26823;BME280;14852;51.910;8.878;2023-11-21T09:12:24;99623.88;;;11.87;67.71
26823;BME280;14852;51.910;8.878;2023-11-21T09:14:52;99627.31;;;11.88;67.56
26823;BME280;14852;51.910;8.878;2023-11-21T09:17:18;99625.63;;;11.87;67.50
26823;BME280;14852;51.910;8.878;2023-11-21T09:19:44;99625.53;;;11.88;67.68
26823;BME280;14852;51.910;8.878;2023-11-21T09:22:12;99632.53;;;11.88;68.05
26823;BME280;14852;51.910;8.878;2023-11-21T09:24:38;99631.56;;;11.89;67.79
26823;BME280;14852;51.910;8.878;2023-11-21T09:27:04;99644.41;;;11.92;67.58
26823;BME280;14852;51.910;8.878;2023-11-21T09:29:30;99634.84;;;11.92;67.63
26823;BME280;14852;51.910;8.878;2023-11-21T09:31:57;99638.19;;;11.94;67.79
26823;BME280;14852;51.910;8.878;2023-11-21T09:34:25;99651.03;;;11.98;67.74
26823;BME280;14852;51.910;8.878;2023-11-21T09:36:52;99657.06;;;11.98;67.90
26823;BME280;14852;51.910;8.878;2023-11-21T09:39:19;99659.59;;;12.00;67.76
26823;BME280;14852;51.910;8.878;2023-11-21T09:41:50;99656.78;;;12.03;67.67
26823;BME280;14852;51.910;8.878;2023-11-21T09:44:46;99659.03;;;12.09;67.61
26823;BME280;14852;51.910;8.878;2023-11-21T09:47:15;99660.88;;;12.07;67.53
26823;BME280;14852;51.910;8.878;2023-11-21T09:49:47;99653.06;;;12.07;67.80
26823;BME280;14852;51.910;8.878;2023-11-21T09:52:28;99663.31;;;12.10;67.69
26823;BME280;14852;51.910;8.878;2023-11-21T09:54:55;99665.94;;;12.10;67.72
26823;BME280;14852;51.910;8.878;2023-11-21T09:57:25;99664.16;;;12.10;67.94
26823;BME280;14852;51.910;8.878;2023-11-21T09:59:52;99676.13;;;12.13;67.68
26823;BME280;14852;51.910;8.878;2023-11-21T10:02:27;99677.81;;;12.14;67.66
26823;BME280;14852;51.910;8.878;2023-11-21T10:04:55;99679.50;;;12.15;67.88
26823;BME280;14852;51.910;8.878;2023-11-21T10:07:22;99685.44;;;12.17;67.54
26823;BME280;14852;51.910;8.878;2023-11-21T10:09:50;99682.75;;;12.18;67.62
26823;BME280;14852;51.910;8.878;2023-11-21T10:12:17;99681.16;;;12.16;67.62
26823;BME280;14852;51.910;8.878;2023-11-21T10:14:43;99692.50;;;12.15;67.92
26823;BME280;14852;51.910;8.878;2023-11-21T10:17:13;99689.72;;;12.18;67.55
26823;BME280;14852;51.910;8.878;2023-11-21T10:19:42;99698.13;;;12.23;67.96
26823;BME280;14852;51.910;8.878;2023-11-21T10:22:09;99691.97;;;12.24;67.45
26823;BME280;14852;51.910;8.878;2023-11-21T10:24:35;99701.44;;;12.25;67.56
26823;BME280;14852;51.910;8.878;2023-11-21T10:27:04;99704.06;;;12.25;67.69
26823;BME280;14852;51.910;8.878;2023-11-21T10:29:30;99707.69;;;12.22;67.66
26823;BME280;14852;51.910;8.878;2023-11-21T10:31:56;99710.41;;;12.21;67.48
26823;BME280;14852;51.910;8.878;2023-11-21T10:34:24;99714.00;;;12.18;67.52
26823;BME280;14852;51.910;8.878;2023-11-21T10:36:50;99709.28;;;12.11;67.64
26823;BME280;14852;51.910;8.878;2023-11-21T10:39:20;99720.63;;;12.10;67.90
26823;BME280;14852;51.910;8.878;2023-11-21T10:41:49;99727.69;;;12.08;67.78
26823;BME280;14852;51.910;8.878;2023-11-21T10:44:19;99725.16;;;12.06;67.58
26823;BME280;14852;51.910;8.878;2023-11-21T10:46:50;99724.22;;;12.07;67.43
26823;BME280;14852;51.910;8.878;2023-11-21T10:49:20;99725.25;;;12.05;67.75
26823;BME280;14852;51.910;8.878;2023-11-21T10:51:46;99729.63;;;12.04;67.63
26823;BME280;14852;51.910;8.878;2023-11-21T10:54:20;99736.75;;;12.01;67.48
26823;BME280;14852;51.910;8.878;2023-11-21T10:56:49;99740.56;;;11.95;67.39
26823;BME280;14852;51.910;8.878;2023-11-21T10:59:17;99739.25;;;11.88;67.52
26823;BME280;14852;51.910;8.878;2023-11-21T11:01:45;99736.31;;;11.78;67.69
26823;BME280;14852;51.910;8.878;2023-11-21T11:04:12;99738.34;;;11.73;67.73
26823;BME280;14852;51.910;8.878;2023-11-21T11:06:51;99741.03;;;11.72;67.75
26823;BME280;14852;51.910;8.878;2023-11-21T11:09:19;99744.63;;;11.69;67.49
26823;BME280;14852;51.910;8.878;2023-11-21T11:11:46;99750.59;;;11.71;67.62
26823;BME280;14852;51.910;8.878;2023-11-21T11:14:13;99748.16;;;11.68;67.59
26823;BME280;14852;51.910;8.878;2023-11-21T11:16:41;99751.13;;;11.62;67.41
26823;BME280;14852;51.910;8.878;2023-11-21T11:19:10;99760.78;;;11.60;67.48
26823;BME280;14852;51.910;8.878;2023-11-21T11:24:46;99775.16;;;11.51;67.44
26823;BME280;14852;51.910;8.878;2023-11-21T11:30:22;99776.31;;;11.46;67.44
26823;BME280;14852;51.910;8.878;2023-11-21T11:33:04;99793.97;;;11.41;67.41
26823;BME280;14852;51.910;8.878;2023-11-21T11:35:57;99786.41;;;11.36;67.49
26823;BME280;14852;51.910;8.878;2023-11-21T11:38:32;99790.28;;;11.29;67.58
26823;BME280;14852;51.910;8.878;2023-11-21T11:41:04;99791.19;;;11.28;67.36
26823;BME280;14852;51.910;8.878;2023-11-21T11:43:31;99790.59;;;11.23;67.37
26823;BME280;14852;51.910;8.878;2023-11-21T11:46:03;99794.13;;;11.22;67.43
26823;BME280;14852;51.910;8.878;2023-11-21T11:48:29;99796.56;;;11.25;67.25
26823;BME280;14852;51.910;8.878;2023-11-21T11:51:12;99804.00;;;11.31;67.34
26823;BME280;14852;51.910;8.878;2023-11-21T11:53:44;99808.41;;;11.31;67.23
26823;BME280;14852;51.910;8.878;2023-11-21T11:56:27;99803.09;;;11.32;67.06
26823;BME280;14852;51.910;8.878;2023-11-21T11:58:56;99812.66;;;11.32;67.13
26823;BME280;14852;51.910;8.878;2023-11-21T12:01:25;99804.78;;;11.33;67.37
26823;BME280;14852;51.910;8.878;2023-11-21T12:06:41;99804.13;;;11.30;67.24
26823;BME280;14852;51.910;8.878;2023-11-21T12:09:12;99803.19;;;11.31;67.31
26823;BME280;14852;51.910;8.878;2023-11-21T12:11:43;99805.97;;;11.28;66.91
26823;BME280;14852;51.910;8.878;2023-11-21T12:14:09;99810.41;;;11.25;67.13
26823;BME280;14852;51.910;8.878;2023-11-21T12:16:35;99821.03;;;11.21;67.16
26823;BME280;14852;51.910;8.878;2023-11-21T12:19:01;99828.91;;;11.19;67.06
26823;BME280;14852;51.910;8.878;2023-11-21T12:21:28;99834.13;;;11.19;66.82
26823;BME280;14852;51.910;8.878;2023-11-21T12:23:54;99827.28;;;11.18;67.10
26823;BME280;14852;51.910;8.878;2023-11-21T12:26:24;99832.38;;;11.20;67.02
26823;BME280;14852;51.910;8.878;2023-11-21T12:28:53;99851.50;;;11.19;67.21
26823;BME280;14852;51.910;8.878;2023-11-21T12:31:22;99851.31;;;11.06;66.55
26823;BME280;14852;51.910;8.878;2023-11-21T12:33:48;99866.19;;;10.87;67.10
26823;BME280;14852;51.910;8.878;2023-11-21T12:36:13;99866.06;;;10.73;67.17
26823;BME280;14852;51.910;8.878;2023-11-21T12:38:40;99869.38;;;10.59;67.01
26823;BME280;14852;51.910;8.878;2023-11-21T12:41:08;99878.63;;;10.47;67.10
26823;BME280;14852;51.910;8.878;2023-11-21T12:43:34;99878.84;;;10.43;67.24
26823;BME280;14852;51.910;8.878;2023-11-21T12:46:13;99894.88;;;10.51;67.20
26823;BME280;14852;51.910;8.878;2023-11-21T12:48:44;99895.78;;;10.50;66.57
26823;BME280;14852;51.910;8.878;2023-11-21T12:51:13;99907.13;;;10.49;66.62
26823;BME280;14852;51.910;8.878;2023-11-21T12:53:42;99903.84;;;10.45;66.58
26823;BME280;14852;51.910;8.878;2023-11-21T12:56:11;99897.94;;;10.42;66.26
26823;BME280;14852;51.910;8.878;2023-11-21T12:58:39;99901.44;;;10.41;66.63
26823;BME280;14852;51.910;8.878;2023-11-21T13:01:06;99906.88;;;10.36;66.62
26823;BME280;14852;51.910;8.878;2023-11-21T13:03:38;99907.72;;;10.37;66.32
26823;BME280;14852;51.910;8.878;2023-11-21T13:06:06;99903.19;;;10.40;66.46
26823;BME280;14852;51.910;8.878;2023-11-21T13:08:33;99909.09;;;10.44;66.39
26823;BME280;14852;51.910;8.878;2023-11-21T13:10:59;99907.47;;;10.41;66.04
26823;BME280;14852;51.910;8.878;2023-11-21T13:13:28;99911.75;;;10.42;66.08